Terminal Aerodrome Forecast
Issued by NWS Louisville, KY

Home | Current Version | Previous Version | Text Only | Print | Product List | Glossary On
Versions: 1 2 3 4 5 6 7 8 9 10 11 12
000
FTUS43 KLMK 241100
TAFSDF
TAF
KSDF 241120Z 2412/2518 VRB03KT P6SM BKN120
     FM241800 22008KT P6SM SCT020 SCT060
     FM250300 24006KT P6SM VCSH BKN025=

USA.gov is the U.S. government's official web portal to all federal, state and local government web resources and services.